sensor_id;sensor_type;location;lat;lon;timestamp;P1;durP1;ratioP1;P2;durP2;ratioP2
44130;SDS011;29792;48.726;9.248;2022-12-11T00:01:16;20.55;;;12.98;;
44130;SDS011;29792;48.726;9.248;2022-12-11T00:03:44;18.20;;;12.38;;
44130;SDS011;29792;48.726;9.248;2022-12-11T00:06:11;17.40;;;12.45;;
44130;SDS011;29792;48.726;9.248;2022-12-11T00:08:37;21.95;;;13.55;;
44130;SDS011;29792;48.726;9.248;2022-12-11T00:11:03;21.30;;;12.10;;
44130;SDS011;29792;48.726;9.248;2022-12-11T00:13:28;20.85;;;13.90;;
44130;SDS011;29792;48.726;9.248;2022-12-11T00:15:53;22.40;;;13.95;;
44130;SDS011;29792;48.726;9.248;2022-12-11T00:18:19;17.88;;;11.10;;
44130;SDS011;29792;48.726;9.248;2022-12-11T00:20:44;19.17;;;13.38;;
44130;SDS011;29792;48.726;9.248;2022-12-11T00:23:10;17.77;;;10.95;;
44130;SDS011;29792;48.726;9.248;2022-12-11T00:25:39;22.50;;;15.38;;
44130;SDS011;29792;48.726;9.248;2022-12-11T00:28:09;20.05;;;12.93;;
44130;SDS011;29792;48.726;9.248;2022-12-11T00:30:39;24.73;;;14.60;;
44130;SDS011;29792;48.726;9.248;2022-12-11T00:33:06;24.55;;;16.15;;
44130;SDS011;29792;48.726;9.248;2022-12-11T00:35:32;26.60;;;17.10;;
44130;SDS011;29792;48.726;9.248;2022-12-11T00:37:57;25.30;;;16.65;;
44130;SDS011;29792;48.726;9.248;2022-12-11T00:40:22;27.33;;;15.27;;
44130;SDS011;29792;48.726;9.248;2022-12-11T00:42:48;24.63;;;16.58;;
44130;SDS011;29792;48.726;9.248;2022-12-11T00:45:13;23.20;;;13.73;;
44130;SDS011;29792;48.726;9.248;2022-12-11T00:47:38;22.85;;;15.30;;
44130;SDS011;29792;48.726;9.248;2022-12-11T00:50:04;21.58;;;13.88;;
44130;SDS011;29792;48.726;9.248;2022-12-11T00:52:29;25.30;;;15.85;;
44130;SDS011;29792;48.726;9.248;2022-12-11T00:54:54;23.17;;;15.10;;
44130;SDS011;29792;48.726;9.248;2022-12-11T00:57:20;23.95;;;13.75;;
44130;SDS011;29792;48.726;9.248;2022-12-11T00:59:45;21.13;;;14.35;;
44130;SDS011;29792;48.726;9.248;2022-12-11T01:02:10;23.95;;;15.90;;
44130;SDS011;29792;48.726;9.248;2022-12-11T01:04:36;24.30;;;16.60;;
44130;SDS011;29792;48.726;9.248;2022-12-11T01:07:01;24.67;;;14.73;;
44130;SDS011;29792;48.726;9.248;2022-12-11T01:09:26;22.45;;;15.13;;
44130;SDS011;29792;48.726;9.248;2022-12-11T01:12:10;21.38;;;12.85;;
44130;SDS011;29792;48.726;9.248;2022-12-11T01:17:03;24.15;;;15.43;;
44130;SDS011;29792;48.726;9.248;2022-12-11T01:19:28;23.75;;;16.15;;
44130;SDS011;29792;48.726;9.248;2022-12-11T01:21:54;25.05;;;16.17;;
44130;SDS011;29792;48.726;9.248;2022-12-11T01:24:19;24.55;;;16.98;;
44130;SDS011;29792;48.726;9.248;2022-12-11T01:26:44;22.50;;;13.98;;
44130;SDS011;29792;48.726;9.248;2022-12-11T01:29:09;24.58;;;14.77;;
44130;SDS011;29792;48.726;9.248;2022-12-11T01:31:35;22.05;;;14.60;;
44130;SDS011;29792;48.726;9.248;2022-12-11T01:34:02;22.65;;;14.27;;
44130;SDS011;29792;48.726;9.248;2022-12-11T01:36:27;22.40;;;14.63;;
44130;SDS011;29792;48.726;9.248;2022-12-11T01:38:52;26.35;;;17.02;;
44130;SDS011;29792;48.726;9.248;2022-12-11T01:41:18;24.27;;;15.90;;
44130;SDS011;29792;48.726;9.248;2022-12-11T01:46:28;23.10;;;15.18;;
44130;SDS011;29792;48.726;9.248;2022-12-11T01:48:55;21.67;;;14.15;;
44130;SDS011;29792;48.726;9.248;2022-12-11T01:51:21;21.77;;;13.32;;
44130;SDS011;29792;48.726;9.248;2022-12-11T01:53:50;23.08;;;15.90;;
44130;SDS011;29792;48.726;9.248;2022-12-11T01:56:20;22.90;;;14.23;;
44130;SDS011;29792;48.726;9.248;2022-12-11T01:58:46;29.30;;;17.27;;
44130;SDS011;29792;48.726;9.248;2022-12-11T02:01:18;19.30;;;14.48;;
44130;SDS011;29792;48.726;9.248;2022-12-11T02:03:49;24.25;;;14.82;;
44130;SDS011;29792;48.726;9.248;2022-12-11T02:09:00;23.30;;;15.00;;
44130;SDS011;29792;48.726;9.248;2022-12-11T02:11:30;26.70;;;16.77;;
44130;SDS011;29792;48.726;9.248;2022-12-11T02:14:04;27.38;;;15.65;;
44130;SDS011;29792;48.726;9.248;2022-12-11T02:16:58;27.33;;;16.47;;
44130;SDS011;29792;48.726;9.248;2022-12-11T02:22:10;23.63;;;14.90;;
44130;SDS011;29792;48.726;9.248;2022-12-11T02:30:12;25.65;;;16.92;;
44130;SDS011;29792;48.726;9.248;2022-12-11T02:32:44;22.63;;;13.52;;
44130;SDS011;29792;48.726;9.248;2022-12-11T02:37:46;22.33;;;15.02;;
44130;SDS011;29792;48.726;9.248;2022-12-11T02:40:14;20.80;;;15.00;;
44130;SDS011;29792;48.726;9.248;2022-12-11T02:42:43;27.85;;;18.33;;
44130;SDS011;29792;48.726;9.248;2022-12-11T02:45:11;30.33;;;18.90;;
44130;SDS011;29792;48.726;9.248;2022-12-11T02:47:38;24.35;;;15.25;;
44130;SDS011;29792;48.726;9.248;2022-12-11T02:50:07;23.50;;;16.15;;
44130;SDS011;29792;48.726;9.248;2022-12-11T02:52:36;22.13;;;14.02;;
44130;SDS011;29792;48.726;9.248;2022-12-11T02:55:06;21.27;;;14.27;;
44130;SDS011;29792;48.726;9.248;2022-12-11T02:57:55;21.83;;;14.57;;
44130;SDS011;29792;48.726;9.248;2022-12-11T03:00:22;23.55;;;14.68;;
44130;SDS011;29792;48.726;9.248;2022-12-11T03:02:47;24.50;;;15.38;;
44130;SDS011;29792;48.726;9.248;2022-12-11T03:05:13;25.83;;;16.02;;
44130;SDS011;29792;48.726;9.248;2022-12-11T03:07:40;24.58;;;14.35;;
44130;SDS011;29792;48.726;9.248;2022-12-11T03:10:09;21.80;;;14.25;;
44130;SDS011;29792;48.726;9.248;2022-12-11T03:12:39;23.00;;;15.82;;
44130;SDS011;29792;48.726;9.248;2022-12-11T03:15:08;18.38;;;12.85;;
44130;SDS011;29792;48.726;9.248;2022-12-11T03:17:41;20.13;;;13.27;;
44130;SDS011;29792;48.726;9.248;2022-12-11T03:20:20;19.60;;;13.43;;
44130;SDS011;29792;48.726;9.248;2022-12-11T03:23:16;21.63;;;13.77;;
44130;SDS011;29792;48.726;9.248;2022-12-11T03:26:02;22.45;;;14.98;;
44130;SDS011;29792;48.726;9.248;2022-12-11T03:31:19;19.67;;;12.38;;
44130;SDS011;29792;48.726;9.248;2022-12-11T03:33:50;20.33;;;12.98;;
44130;SDS011;29792;48.726;9.248;2022-12-11T03:36:26;20.77;;;12.43;;
44130;SDS011;29792;48.726;9.248;2022-12-11T03:38:59;22.20;;;13.13;;
44130;SDS011;29792;48.726;9.248;2022-12-11T03:41:30;19.35;;;12.80;;
44130;SDS011;29792;48.726;9.248;2022-12-11T03:43:58;19.90;;;14.30;;
44130;SDS011;29792;48.726;9.248;2022-12-11T03:46:26;20.40;;;14.63;;
44130;SDS011;29792;48.726;9.248;2022-12-11T03:48:57;17.08;;;12.38;;
44130;SDS011;29792;48.726;9.248;2022-12-11T03:51:25;20.02;;;14.02;;
44130;SDS011;29792;48.726;9.248;2022-12-11T03:53:55;17.67;;;13.00;;
44130;SDS011;29792;48.726;9.248;2022-12-11T03:56:21;21.13;;;12.82;;
44130;SDS011;29792;48.726;9.248;2022-12-11T03:58:50;19.33;;;13.60;;
44130;SDS011;29792;48.726;9.248;2022-12-11T04:01:15;19.52;;;12.02;;
44130;SDS011;29792;48.726;9.248;2022-12-11T04:03:41;18.98;;;11.90;;
44130;SDS011;29792;48.726;9.248;2022-12-11T04:06:06;19.48;;;13.32;;
44130;SDS011;29792;48.726;9.248;2022-12-11T04:08:32;17.58;;;13.05;;
44130;SDS011;29792;48.726;9.248;2022-12-11T04:10:57;20.23;;;11.80;;
44130;SDS011;29792;48.726;9.248;2022-12-11T04:13:41;20.50;;;13.23;;
44130;SDS011;29792;48.726;9.248;2022-12-11T04:16:07;19.42;;;11.90;;
44130;SDS011;29792;48.726;9.248;2022-12-11T04:18:33;18.80;;;13.02;;
44130;SDS011;29792;48.726;9.248;2022-12-11T04:21:18;16.48;;;11.63;;
44130;SDS011;29792;48.726;9.248;2022-12-11T04:24:02;19.23;;;13.05;;
44130;SDS011;29792;48.726;9.248;2022-12-11T04:26:44;16.83;;;11.55;;
44130;SDS011;29792;48.726;9.248;2022-12-11T04:29:10;16.92;;;11.27;;
44130;SDS011;29792;48.726;9.248;2022-12-11T04:31:36;18.27;;;14.10;;
44130;SDS011;29792;48.726;9.248;2022-12-11T04:34:02;17.83;;;12.55;;
44130;SDS011;29792;48.726;9.248;2022-12-11T04:36:27;18.88;;;13.60;;
44130;SDS011;29792;48.726;9.248;2022-12-11T04:38:53;23.55;;;15.23;;
44130;SDS011;29792;48.726;9.248;2022-12-11T04:41:18;21.88;;;12.00;;
44130;SDS011;29792;48.726;9.248;2022-12-11T04:43:43;19.02;;;11.70;;
44130;SDS011;29792;48.726;9.248;2022-12-11T04:46:16;21.73;;;13.43;;
44130;SDS011;29792;48.726;9.248;2022-12-11T04:48:44;16.77;;;10.85;;
44130;SDS011;29792;48.726;9.248;2022-12-11T04:51:10;19.27;;;12.75;;
44130;SDS011;29792;48.726;9.248;2022-12-11T04:53:35;18.13;;;12.77;;
44130;SDS011;29792;48.726;9.248;2022-12-11T04:56:04;18.23;;;11.85;;
44130;SDS011;29792;48.726;9.248;2022-12-11T04:58:30;18.27;;;11.80;;
44130;SDS011;29792;48.726;9.248;2022-12-11T05:00:56;12.75;;;8.68;;
44130;SDS011;29792;48.726;9.248;2022-12-11T05:03:21;15.25;;;9.57;;
44130;SDS011;29792;48.726;9.248;2022-12-11T05:05:47;16.63;;;11.48;;
44130;SDS011;29792;48.726;9.248;2022-12-11T05:08:14;15.40;;;9.75;;
44130;SDS011;29792;48.726;9.248;2022-12-11T05:10:40;17.63;;;11.00;;
44130;SDS011;29792;48.726;9.248;2022-12-11T05:13:06;17.33;;;10.40;;
44130;SDS011;29792;48.726;9.248;2022-12-11T05:15:31;14.95;;;10.48;;
44130;SDS011;29792;48.726;9.248;2022-12-11T05:17:56;15.85;;;9.48;;
44130;SDS011;29792;48.726;9.248;2022-12-11T05:20:22;15.20;;;10.55;;
44130;SDS011;29792;48.726;9.248;2022-12-11T05:22:47;17.90;;;11.82;;
44130;SDS011;29792;48.726;9.248;2022-12-11T05:25:12;15.02;;;8.95;;
44130;SDS011;29792;48.726;9.248;2022-12-11T05:27:38;13.43;;;10.05;;
44130;SDS011;29792;48.726;9.248;2022-12-11T05:30:03;16.13;;;11.60;;
44130;SDS011;29792;48.726;9.248;2022-12-11T05:32:29;18.23;;;10.85;;
44130;SDS011;29792;48.726;9.248;2022-12-11T05:34:54;18.48;;;11.13;;
44130;SDS011;29792;48.726;9.248;2022-12-11T05:37:19;18.63;;;12.90;;
44130;SDS011;29792;48.726;9.248;2022-12-11T05:39:45;20.95;;;13.00;;
44130;SDS011;29792;48.726;9.248;2022-12-11T05:42:10;16.10;;;11.20;;
44130;SDS011;29792;48.726;9.248;2022-12-11T05:44:35;19.35;;;13.80;;
44130;SDS011;29792;48.726;9.248;2022-12-11T05:47:01;16.83;;;12.50;;
44130;SDS011;29792;48.726;9.248;2022-12-11T05:49:26;14.45;;;10.55;;
44130;SDS011;29792;48.726;9.248;2022-12-11T05:51:51;15.93;;;9.32;;
44130;SDS011;29792;48.726;9.248;2022-12-11T05:54:16;17.40;;;12.02;;
44130;SDS011;29792;48.726;9.248;2022-12-11T05:56:41;19.70;;;12.27;;
44130;SDS011;29792;48.726;9.248;2022-12-11T05:59:07;14.98;;;10.52;;
44130;SDS011;29792;48.726;9.248;2022-12-11T06:01:34;17.00;;;11.52;;
44130;SDS011;29792;48.726;9.248;2022-12-11T06:04:03;16.23;;;11.23;;
44130;SDS011;29792;48.726;9.248;2022-12-11T06:06:30;14.15;;;8.95;;
44130;SDS011;29792;48.726;9.248;2022-12-11T06:08:56;18.38;;;10.75;;
44130;SDS011;29792;48.726;9.248;2022-12-11T06:11:23;18.10;;;11.38;;
44130;SDS011;29792;48.726;9.248;2022-12-11T06:13:49;15.32;;;9.30;;
44130;SDS011;29792;48.726;9.248;2022-12-11T06:16:14;16.98;;;10.65;;
44130;SDS011;29792;48.726;9.248;2022-12-11T06:18:41;20.33;;;12.02;;
44130;SDS011;29792;48.726;9.248;2022-12-11T06:21:12;14.80;;;10.45;;
44130;SDS011;29792;48.726;9.248;2022-12-11T06:23:39;17.92;;;12.75;;
44130;SDS011;29792;48.726;9.248;2022-12-11T06:26:05;18.15;;;11.88;;
44130;SDS011;29792;48.726;9.248;2022-12-11T06:28:31;21.08;;;13.85;;
44130;SDS011;29792;48.726;9.248;2022-12-11T06:30:59;19.23;;;11.45;;
44130;SDS011;29792;48.726;9.248;2022-12-11T06:33:25;18.85;;;13.10;;
44130;SDS011;29792;48.726;9.248;2022-12-11T06:35:51;16.50;;;10.40;;
44130;SDS011;29792;48.726;9.248;2022-12-11T06:38:16;17.08;;;9.85;;
44130;SDS011;29792;48.726;9.248;2022-12-11T06:40:42;18.67;;;12.75;;
44130;SDS011;29792;48.726;9.248;2022-12-11T06:43:07;18.00;;;11.50;;
44130;SDS011;29792;48.726;9.248;2022-12-11T06:45:32;16.00;;;10.98;;
44130;SDS011;29792;48.726;9.248;2022-12-11T06:47:58;16.42;;;11.40;;
44130;SDS011;29792;48.726;9.248;2022-12-11T06:50:23;16.15;;;11.20;;
44130;SDS011;29792;48.726;9.248;2022-12-11T06:52:48;17.13;;;11.75;;
44130;SDS011;29792;48.726;9.248;2022-12-11T06:55:13;17.88;;;11.30;;
44130;SDS011;29792;48.726;9.248;2022-12-11T06:57:39;17.60;;;10.77;;
44130;SDS011;29792;48.726;9.248;2022-12-11T07:00:04;19.30;;;12.18;;
44130;SDS011;29792;48.726;9.248;2022-12-11T07:02:30;18.15;;;10.60;;
44130;SDS011;29792;48.726;9.248;2022-12-11T07:04:56;17.20;;;10.90;;
44130;SDS011;29792;48.726;9.248;2022-12-11T07:07:21;18.02;;;10.60;;
44130;SDS011;29792;48.726;9.248;2022-12-11T07:09:46;17.80;;;11.38;;
44130;SDS011;29792;48.726;9.248;2022-12-11T07:12:12;20.85;;;13.05;;
44130;SDS011;29792;48.726;9.248;2022-12-11T07:14:37;19.05;;;12.43;;
44130;SDS011;29792;48.726;9.248;2022-12-11T07:17:02;18.02;;;10.77;;
44130;SDS011;29792;48.726;9.248;2022-12-11T07:19:27;19.88;;;12.45;;
44130;SDS011;29792;48.726;9.248;2022-12-11T07:21:53;18.17;;;12.27;;
44130;SDS011;29792;48.726;9.248;2022-12-11T07:24:18;19.80;;;12.43;;
44130;SDS011;29792;48.726;9.248;2022-12-11T07:26:43;19.00;;;11.55;;
44130;SDS011;29792;48.726;9.248;2022-12-11T07:29:09;17.58;;;11.50;;
44130;SDS011;29792;48.726;9.248;2022-12-11T07:31:35;20.20;;;12.82;;
44130;SDS011;29792;48.726;9.248;2022-12-11T07:34:04;20.90;;;12.65;;
44130;SDS011;29792;48.726;9.248;2022-12-11T07:36:31;21.75;;;13.55;;
44130;SDS011;29792;48.726;9.248;2022-12-11T07:38:58;17.98;;;12.57;;
44130;SDS011;29792;48.726;9.248;2022-12-11T07:41:24;20.55;;;11.75;;
44130;SDS011;29792;48.726;9.248;2022-12-11T07:43:52;19.02;;;11.77;;
44130;SDS011;29792;48.726;9.248;2022-12-11T07:46:19;18.92;;;12.75;;
44130;SDS011;29792;48.726;9.248;2022-12-11T07:48:46;19.38;;;12.27;;
44130;SDS011;29792;48.726;9.248;2022-12-11T07:51:20;18.05;;;10.27;;
44130;SDS011;29792;48.726;9.248;2022-12-11T07:53:50;16.65;;;10.70;;
44130;SDS011;29792;48.726;9.248;2022-12-11T07:56:17;18.02;;;11.27;;
44130;SDS011;29792;48.726;9.248;2022-12-11T07:58:43;16.63;;;11.30;;
44130;SDS011;29792;48.726;9.248;2022-12-11T08:01:31;16.00;;;9.93;;
44130;SDS011;29792;48.726;9.248;2022-12-11T08:03:55;18.00;;;12.00;;
44130;SDS011;29792;48.726;9.248;2022-12-11T08:06:26;16.70;;;10.05;;
44130;SDS011;29792;48.726;9.248;2022-12-11T08:08:53;19.98;;;13.40;;
44130;SDS011;29792;48.726;9.248;2022-12-11T08:11:19;16.92;;;10.10;;
44130;SDS011;29792;48.726;9.248;2022-12-11T08:13:44;18.88;;;11.80;;
44130;SDS011;29792;48.726;9.248;2022-12-11T08:16:11;16.35;;;11.20;;
44130;SDS011;29792;48.726;9.248;2022-12-11T08:18:38;16.05;;;10.52;;
44130;SDS011;29792;48.726;9.248;2022-12-11T08:21:04;17.35;;;11.23;;
44130;SDS011;29792;48.726;9.248;2022-12-11T08:23:30;14.65;;;10.77;;
44130;SDS011;29792;48.726;9.248;2022-12-11T08:25:56;15.10;;;10.88;;
44130;SDS011;29792;48.726;9.248;2022-12-11T08:28:21;15.60;;;11.13;;
44130;SDS011;29792;48.726;9.248;2022-12-11T08:30:46;20.08;;;14.02;;
44130;SDS011;29792;48.726;9.248;2022-12-11T08:33:11;14.50;;;9.55;;
44130;SDS011;29792;48.726;9.248;2022-12-11T08:35:37;14.38;;;10.18;;
44130;SDS011;29792;48.726;9.248;2022-12-11T08:38:03;16.40;;;10.90;;
44130;SDS011;29792;48.726;9.248;2022-12-11T08:40:29;18.20;;;12.50;;
44130;SDS011;29792;48.726;9.248;2022-12-11T08:42:54;19.83;;;12.32;;
44130;SDS011;29792;48.726;9.248;2022-12-11T08:45:19;16.63;;;11.90;;
44130;SDS011;29792;48.726;9.248;2022-12-11T08:47:44;17.65;;;12.15;;
44130;SDS011;29792;48.726;9.248;2022-12-11T08:50:10;20.08;;;11.50;;
44130;SDS011;29792;48.726;9.248;2022-12-11T08:52:35;17.10;;;11.23;;
44130;SDS011;29792;48.726;9.248;2022-12-11T08:55:00;15.50;;;10.38;;
44130;SDS011;29792;48.726;9.248;2022-12-11T08:57:26;20.10;;;12.55;;
44130;SDS011;29792;48.726;9.248;2022-12-11T08:59:52;14.57;;;11.80;;
44130;SDS011;29792;48.726;9.248;2022-12-11T09:02:17;17.38;;;11.20;;
44130;SDS011;29792;48.726;9.248;2022-12-11T09:04:43;17.92;;;11.75;;
44130;SDS011;29792;48.726;9.248;2022-12-11T09:07:08;15.75;;;10.57;;
44130;SDS011;29792;48.726;9.248;2022-12-11T09:09:33;15.25;;;10.18;;
44130;SDS011;29792;48.726;9.248;2022-12-11T09:11:58;17.40;;;11.60;;
44130;SDS011;29792;48.726;9.248;2022-12-11T09:14:25;15.38;;;11.18;;
44130;SDS011;29792;48.726;9.248;2022-12-11T09:16:51;16.30;;;11.07;;
44130;SDS011;29792;48.726;9.248;2022-12-11T09:19:16;16.88;;;10.52;;
44130;SDS011;29792;48.726;9.248;2022-12-11T09:21:42;15.85;;;11.57;;
44130;SDS011;29792;48.726;9.248;2022-12-11T09:24:08;16.00;;;12.45;;
44130;SDS011;29792;48.726;9.248;2022-12-11T09:26:34;19.40;;;13.43;;
44130;SDS011;29792;48.726;9.248;2022-12-11T09:29:01;19.77;;;14.63;;
44130;SDS011;29792;48.726;9.248;2022-12-11T09:31:28;18.23;;;15.65;;
44130;SDS011;29792;48.726;9.248;2022-12-11T09:33:56;18.27;;;12.40;;
44130;SDS011;29792;48.726;9.248;2022-12-11T09:36:24;18.75;;;12.75;;
44130;SDS011;29792;48.726;9.248;2022-12-11T09:38:50;23.15;;;15.85;;
44130;SDS011;29792;48.726;9.248;2022-12-11T09:46:27;18.80;;;13.35;;
44130;SDS011;29792;48.726;9.248;2022-12-11T09:48:53;19.33;;;12.68;;
44130;SDS011;29792;48.726;9.248;2022-12-11T09:51:23;18.77;;;12.82;;
44130;SDS011;29792;48.726;9.248;2022-12-11T09:53:50;21.15;;;14.48;;
44130;SDS011;29792;48.726;9.248;2022-12-11T09:56:26;20.88;;;13.40;;
44130;SDS011;29792;48.726;9.248;2022-12-11T10:01:38;19.40;;;13.07;;
44130;SDS011;29792;48.726;9.248;2022-12-11T10:04:17;20.30;;;13.10;;
44130;SDS011;29792;48.726;9.248;2022-12-11T10:07:08;21.77;;;14.07;;
44130;SDS011;29792;48.726;9.248;2022-12-11T10:09:42;21.67;;;15.27;;
44130;SDS011;29792;48.726;9.248;2022-12-11T10:15:27;22.48;;;13.45;;
44130;SDS011;29792;48.726;9.248;2022-12-11T10:17:59;21.60;;;12.57;;
44130;SDS011;29792;48.726;9.248;2022-12-11T10:23:00;16.92;;;12.95;;
44130;SDS011;29792;48.726;9.248;2022-12-11T10:25:31;21.42;;;12.25;;
44130;SDS011;29792;48.726;9.248;2022-12-11T10:28:22;20.50;;;12.63;;
44130;SDS011;29792;48.726;9.248;2022-12-11T10:30:54;17.70;;;11.65;;
44130;SDS011;29792;48.726;9.248;2022-12-11T10:36:26;19.30;;;12.73;;
44130;SDS011;29792;48.726;9.248;2022-12-11T10:38:56;22.25;;;14.05;;
44130;SDS011;29792;48.726;9.248;2022-12-11T10:41:23;17.17;;;13.00;;
44130;SDS011;29792;48.726;9.248;2022-12-11T10:44:11;20.75;;;13.85;;
44130;SDS011;29792;48.726;9.248;2022-12-11T10:46:38;15.15;;;10.43;;
44130;SDS011;29792;48.726;9.248;2022-12-11T10:49:04;17.52;;;12.15;;
44130;SDS011;29792;48.726;9.248;2022-12-11T10:53:55;23.13;;;11.70;;
44130;SDS011;29792;48.726;9.248;2022-12-11T10:56:27;23.67;;;12.55;;
44130;SDS011;29792;48.726;9.248;2022-12-11T10:58:55;20.70;;;13.15;;
44130;SDS011;29792;48.726;9.248;2022-12-11T11:01:23;19.60;;;12.18;;
44130;SDS011;29792;48.726;9.248;2022-12-11T11:03:52;18.48;;;12.27;;
44130;SDS011;29792;48.726;9.248;2022-12-11T11:09:01;14.38;;;10.65;;
44130;SDS011;29792;48.726;9.248;2022-12-11T11:11:31;21.13;;;14.07;;
44130;SDS011;29792;48.726;9.248;2022-12-11T11:14:20;18.47;;;11.17;;
44130;SDS011;29792;48.726;9.248;2022-12-11T11:16:47;13.33;;;9.50;;
44130;SDS011;29792;48.726;9.248;2022-12-11T11:19:18;18.88;;;12.02;;
44130;SDS011;29792;48.726;9.248;2022-12-11T11:21:47;17.33;;;11.20;;
44130;SDS011;29792;48.726;9.248;2022-12-11T11:27:24;18.48;;;11.75;;
44130;SDS011;29792;48.726;9.248;2022-12-11T11:30:04;19.38;;;11.23;;
44130;SDS011;29792;48.726;9.248;2022-12-11T11:32:32;18.20;;;12.45;;
44130;SDS011;29792;48.726;9.248;2022-12-11T11:37:37;19.10;;;11.98;;
44130;SDS011;29792;48.726;9.248;2022-12-11T11:40:10;17.95;;;12.70;;
44130;SDS011;29792;48.726;9.248;2022-12-11T11:42:43;19.83;;;13.00;;
44130;SDS011;29792;48.726;9.248;2022-12-11T11:45:15;16.42;;;12.05;;
44130;SDS011;29792;48.726;9.248;2022-12-11T11:47:51;18.65;;;12.52;;
44130;SDS011;29792;48.726;9.248;2022-12-11T11:50:29;19.48;;;11.23;;
44130;SDS011;29792;48.726;9.248;2022-12-11T11:53:04;18.50;;;12.90;;
44130;SDS011;29792;48.726;9.248;2022-12-11T11:55:39;19.60;;;13.05;;
44130;SDS011;29792;48.726;9.248;2022-12-11T11:58:14;20.65;;;13.18;;
44130;SDS011;29792;48.726;9.248;2022-12-11T12:00:43;18.27;;;12.35;;
44130;SDS011;29792;48.726;9.248;2022-12-11T12:03:13;18.85;;;11.63;;
44130;SDS011;29792;48.726;9.248;2022-12-11T12:14:24;19.80;;;13.07;;
44130;SDS011;29792;48.726;9.248;2022-12-11T12:17:18;23.60;;;12.13;;
44130;SDS011;29792;48.726;9.248;2022-12-11T12:27:54;19.48;;;12.90;;
44130;SDS011;29792;48.726;9.248;2022-12-11T12:30:55;20.48;;;12.30;;
44130;SDS011;29792;48.726;9.248;2022-12-11T12:41:42;20.27;;;14.80;;
44130;SDS011;29792;48.726;9.248;2022-12-11T12:44:12;20.80;;;13.50;;
44130;SDS011;29792;48.726;9.248;2022-12-11T12:46:57;15.35;;;11.13;;
44130;SDS011;29792;48.726;9.248;2022-12-11T12:52:18;17.77;;;12.43;;
44130;SDS011;29792;48.726;9.248;2022-12-11T12:54:51;20.02;;;13.18;;
44130;SDS011;29792;48.726;9.248;2022-12-11T12:57:44;15.68;;;9.55;;
44130;SDS011;29792;48.726;9.248;2022-12-11T13:00:13;16.50;;;11.27;;
44130;SDS011;29792;48.726;9.248;2022-12-11T13:02:50;19.38;;;12.30;;
44130;SDS011;29792;48.726;9.248;2022-12-11T13:05:20;19.05;;;11.80;;
44130;SDS011;29792;48.726;9.248;2022-12-11T13:07:49;18.80;;;12.77;;
44130;SDS011;29792;48.726;9.248;2022-12-11T13:10:26;17.35;;;13.23;;
44130;SDS011;29792;48.726;9.248;2022-12-11T13:12:54;16.63;;;11.57;;
44130;SDS011;29792;48.726;9.248;2022-12-11T13:15:29;18.33;;;12.93;;
44130;SDS011;29792;48.726;9.248;2022-12-11T13:17:57;16.98;;;11.93;;
44130;SDS011;29792;48.726;9.248;2022-12-11T13:20:25;19.02;;;13.57;;
44130;SDS011;29792;48.726;9.248;2022-12-11T13:23:37;19.92;;;13.23;;
44130;SDS011;29792;48.726;9.248;2022-12-11T13:25:48;17.92;;;11.68;;
44130;SDS011;29792;48.726;9.248;2022-12-11T13:28:22;27.75;;;15.35;;
44130;SDS011;29792;48.726;9.248;2022-12-11T13:31:00;16.38;;;12.55;;
44130;SDS011;29792;48.726;9.248;2022-12-11T13:33:29;18.92;;;12.82;;
44130;SDS011;29792;48.726;9.248;2022-12-11T13:36:03;13.88;;;11.05;;
44130;SDS011;29792;48.726;9.248;2022-12-11T13:38:52;19.65;;;13.63;;
44130;SDS011;29792;48.726;9.248;2022-12-11T13:41:20;19.23;;;14.57;;
44130;SDS011;29792;48.726;9.248;2022-12-11T13:43:47;19.10;;;12.13;;
44130;SDS011;29792;48.726;9.248;2022-12-11T13:46:13;17.15;;;12.65;;
44130;SDS011;29792;48.726;9.248;2022-12-11T13:48:47;20.33;;;13.15;;
44130;SDS011;29792;48.726;9.248;2022-12-11T13:51:17;19.67;;;13.45;;
44130;SDS011;29792;48.726;9.248;2022-12-11T13:53:45;20.73;;;13.10;;
44130;SDS011;29792;48.726;9.248;2022-12-11T13:56:17;20.05;;;12.65;;
44130;SDS011;29792;48.726;9.248;2022-12-11T13:58:45;19.38;;;13.65;;
44130;SDS011;29792;48.726;9.248;2022-12-11T14:03:52;19.35;;;13.25;;
44130;SDS011;29792;48.726;9.248;2022-12-11T14:06:19;21.77;;;15.45;;
44130;SDS011;29792;48.726;9.248;2022-12-11T14:08:47;17.92;;;12.40;;
44130;SDS011;29792;48.726;9.248;2022-12-11T14:11:17;22.70;;;15.65;;
44130;SDS011;29792;48.726;9.248;2022-12-11T14:13:46;21.02;;;14.02;;
44130;SDS011;29792;48.726;9.248;2022-12-11T14:16:13;20.35;;;12.90;;
44130;SDS011;29792;48.726;9.248;2022-12-11T14:18:43;21.45;;;15.00;;
44130;SDS011;29792;48.726;9.248;2022-12-11T14:21:16;24.48;;;15.55;;
44130;SDS011;29792;48.726;9.248;2022-12-11T14:23:49;28.98;;;17.25;;
44130;SDS011;29792;48.726;9.248;2022-12-11T14:26:17;21.83;;;13.40;;
44130;SDS011;29792;48.726;9.248;2022-12-11T14:28:45;22.75;;;15.10;;
44130;SDS011;29792;48.726;9.248;2022-12-11T14:31:24;26.50;;;17.95;;
44130;SDS011;29792;48.726;9.248;2022-12-11T14:33:56;30.58;;;19.73;;
44130;SDS011;29792;48.726;9.248;2022-12-11T14:36:27;30.55;;;18.02;;
44130;SDS011;29792;48.726;9.248;2022-12-11T14:39:13;23.77;;;15.90;;
44130;SDS011;29792;48.726;9.248;2022-12-11T14:44:10;20.33;;;14.52;;
44130;SDS011;29792;48.726;9.248;2022-12-11T14:46:41;22.35;;;16.50;;
44130;SDS011;29792;48.726;9.248;2022-12-11T14:49:19;25.75;;;15.52;;
44130;SDS011;29792;48.726;9.248;2022-12-11T14:51:48;26.33;;;18.55;;
44130;SDS011;29792;48.726;9.248;2022-12-11T14:54:27;26.13;;;16.63;;
44130;SDS011;29792;48.726;9.248;2022-12-11T14:56:55;25.17;;;15.63;;
44130;SDS011;29792;48.726;9.248;2022-12-11T14:59:22;22.40;;;16.02;;
44130;SDS011;29792;48.726;9.248;2022-12-11T15:02:00;27.55;;;18.00;;
44130;SDS011;29792;48.726;9.248;2022-12-11T15:04:28;25.05;;;16.02;;
44130;SDS011;29792;48.726;9.248;2022-12-11T15:06:55;29.35;;;17.83;;
44130;SDS011;29792;48.726;9.248;2022-12-11T15:09:26;30.40;;;19.25;;
44130;SDS011;29792;48.726;9.248;2022-12-11T15:12:09;27.95;;;18.65;;
44130;SDS011;29792;48.726;9.248;2022-12-11T15:17:25;23.35;;;15.05;;
44130;SDS011;29792;48.726;9.248;2022-12-11T15:19:52;29.80;;;18.65;;
44130;SDS011;29792;48.726;9.248;2022-12-11T15:22:21;25.98;;;17.42;;
44130;SDS011;29792;48.726;9.248;2022-12-11T15:24:51;27.83;;;17.85;;
44130;SDS011;29792;48.726;9.248;2022-12-11T15:27:23;33.80;;;18.77;;
44130;SDS011;29792;48.726;9.248;2022-12-11T15:29:53;31.02;;;20.63;;
44130;SDS011;29792;48.726;9.248;2022-12-11T15:32:19;30.85;;;21.23;;
44130;SDS011;29792;48.726;9.248;2022-12-11T15:34:53;29.65;;;19.35;;
44130;SDS011;29792;48.726;9.248;2022-12-11T15:39:49;27.10;;;18.30;;
44130;SDS011;29792;48.726;9.248;2022-12-11T15:42:21;35.17;;;20.35;;
44130;SDS011;29792;48.726;9.248;2022-12-11T15:44:50;34.08;;;20.67;;
44130;SDS011;29792;48.726;9.248;2022-12-11T15:47:20;33.85;;;22.98;;
44130;SDS011;29792;48.726;9.248;2022-12-11T15:49:47;36.40;;;22.73;;
44130;SDS011;29792;48.726;9.248;2022-12-11T15:52:13;30.02;;;18.10;;
44130;SDS011;29792;48.726;9.248;2022-12-11T15:54:38;30.45;;;20.17;;
44130;SDS011;29792;48.726;9.248;2022-12-11T15:57:05;33.30;;;18.67;;
44130;SDS011;29792;48.726;9.248;2022-12-11T15:59:37;33.45;;;18.58;;